createdAt,value
2022-11-20T00:04:19.352Z,5.5
2022-11-20T00:09:27.357Z,5.5
2022-11-20T00:14:35.299Z,5.5
2022-11-20T00:24:51.250Z,5.5
2022-11-20T00:29:59.219Z,5.5
2022-11-20T00:35:07.164Z,5.5
2022-11-20T00:40:15.182Z,5.5
2022-11-20T00:50:31.145Z,5.5
2022-11-20T00:55:39.080Z,5.5
2022-11-20T01:00:47.115Z,5.5
2022-11-20T01:11:03.015Z,5.5
2022-11-20T01:16:09.725Z,5.5
2022-11-20T01:21:16.478Z,5.5
2022-11-20T01:26:23.204Z,5.5
2022-11-20T01:31:29.973Z,5.5
2022-11-20T01:36:36.679Z,5.5
2022-11-20T01:41:43.446Z,5.4
2022-11-20T01:46:50.167Z,5.4
2022-11-20T01:51:56.917Z,5.4
2022-11-20T01:57:03.645Z,5.4
2022-11-20T02:02:11.623Z,5.4
2022-11-20T02:07:19.664Z,5.4
2022-11-20T02:12:26.343Z,5.4
2022-11-20T02:17:34.280Z,5.4
2022-11-20T02:22:42.279Z,5.4
2022-11-20T02:32:58.182Z,5.4
2022-11-20T02:38:05.027Z,5.4
2022-11-20T02:43:12.913Z,5.4
2022-11-20T02:48:20.867Z,5.4
2022-11-20T02:53:28.839Z,5.4
2022-11-20T02:58:36.839Z,5.4
2022-11-20T03:14:00.720Z,5.4
2022-11-20T03:19:07.846Z,5.4
2022-11-20T03:24:14.202Z,5.4
2022-11-20T03:29:21.145Z,5.4
2022-11-20T03:34:27.686Z,5.4
2022-11-20T03:39:34.427Z,5.3
2022-11-20T03:44:41.160Z,5.3
2022-11-20T03:54:55.902Z,5.3
2022-11-20T04:00:02.628Z,5.3
2022-11-20T04:05:09.399Z,5.3
2022-11-20T04:10:16.108Z,5.3
2022-11-20T04:20:30.820Z,5.3
2022-11-20T04:25:37.556Z,5.3
2022-11-20T04:30:44.318Z,5.3
2022-11-20T04:35:51.037Z,5.3
2022-11-20T04:40:57.793Z,5.3
2022-11-20T04:46:04.542Z,5.3
2022-11-20T04:51:11.279Z,5.3
2022-11-20T04:56:18.018Z,5.3
2022-11-20T05:01:24.871Z,5.3
2022-11-20T05:06:32.741Z,5.3
2022-11-20T05:16:48.691Z,5.3
2022-11-20T05:21:55.430Z,5.2
2022-11-20T05:27:03.421Z,5.2
2022-11-20T05:32:10.153Z,5.2
2022-11-20T05:37:16.917Z,5.2
2022-11-20T05:42:23.639Z,5.2
2022-11-20T05:52:39.588Z,5.2
2022-11-20T05:57:46.339Z,5.2
2022-11-20T06:02:53.224Z,5.2
2022-11-20T06:07:59.831Z,5.2
2022-11-20T06:13:07.791Z,5.2
2022-11-20T06:18:14.516Z,5.2
2022-11-20T06:23:22.452Z,5.2
2022-11-20T06:28:30.504Z,5.2
2022-11-20T06:33:38.395Z,5.2
2022-11-20T06:38:46.360Z,5.2
2022-11-20T06:43:54.323Z,5.2
2022-11-20T06:49:02.288Z,5.2
2022-11-20T06:54:10.256Z,5.2
2022-11-20T06:59:18.223Z,5.2
2022-11-20T07:04:26.190Z,5.2
2022-11-20T07:09:34.146Z,5.2
2022-11-20T07:14:42.149Z,5.2
2022-11-20T07:19:50.106Z,5.2
2022-11-20T07:24:58.079Z,5.2
2022-11-20T07:30:06.062Z,5.2
2022-11-20T07:35:14.027Z,5.2
2022-11-20T07:40:21.998Z,5.2
2022-11-20T07:45:29.955Z,5.2
2022-11-20T07:50:37.929Z,5.2
2022-11-20T07:55:45.901Z,5.2
2022-11-20T08:00:53.918Z,5.2
2022-11-20T08:06:01.866Z,5.2
2022-11-20T08:11:09.787Z,5.2
2022-11-20T08:16:17.773Z,5.2
2022-11-20T08:21:25.744Z,5.2
2022-11-20T08:26:33.726Z,5.2
2022-11-20T08:36:49.662Z,5.2
2022-11-20T08:41:57.624Z,5.2
2022-11-20T08:47:05.610Z,5.2
2022-11-20T08:57:21.526Z,5.2
2022-11-20T09:02:29.526Z,5.2
2022-11-20T09:07:37.565Z,5.2
2022-11-20T09:12:45.448Z,5.2
2022-11-20T09:17:53.426Z,5.2
2022-11-20T09:23:01.427Z,5.2
2022-11-20T09:28:09.401Z,5.2
2022-11-20T09:33:17.399Z,5.2
2022-11-20T09:38:25.342Z,5.2
2022-11-20T09:43:35.230Z,5.2
2022-11-20T09:48:41.277Z,5.2
2022-11-20T09:53:49.262Z,5.3
2022-11-20T09:58:57.234Z,5.3
2022-11-20T10:04:05.206Z,5.3
2022-11-20T10:09:13.177Z,5.3
2022-11-20T10:14:21.135Z,5.4
2022-11-20T10:19:29.137Z,5.4
2022-11-20T10:24:37.090Z,5.4
2022-11-20T10:29:45.064Z,5.4
2022-11-20T10:34:53.029Z,5.4
2022-11-20T10:40:00.980Z,5.5
2022-11-20T10:45:08.969Z,5.5
2022-11-20T10:50:22.125Z,5.5
2022-11-20T10:55:24.898Z,5.5
2022-11-20T11:00:32.861Z,5.5
2022-11-20T11:05:40.832Z,5.6
2022-11-20T11:10:48.798Z,5.6
2022-11-20T11:21:04.745Z,5.7
2022-11-20T11:26:12.716Z,5.7
2022-11-20T11:31:20.662Z,5.8
2022-11-20T11:36:28.641Z,5.8
2022-11-20T11:41:36.652Z,5.8
2022-11-20T11:46:44.580Z,5.9
2022-11-20T11:51:51.285Z,5.9
2022-11-20T11:56:59.249Z,5.9
2022-11-20T12:02:07.251Z,6
2022-11-20T12:07:44.191Z,6
2022-11-20T12:12:23.182Z,6
2022-11-20T12:17:31.140Z,6
2022-11-20T12:22:39.103Z,6
2022-11-20T12:27:47.072Z,6
2022-11-20T12:32:55.041Z,6
2022-11-20T12:38:03.012Z,6
2022-11-20T12:43:10.973Z,6
2022-11-20T12:48:18.932Z,6
2022-11-20T12:53:26.924Z,6
2022-11-20T12:58:34.901Z,6
2022-11-20T13:03:42.854Z,6
2022-11-20T13:08:50.813Z,6
2022-11-20T13:13:58.804Z,6
2022-11-20T13:19:06.797Z,6
2022-11-20T13:24:14.748Z,6
2022-11-20T13:29:22.703Z,6
2022-11-20T13:34:30.687Z,6
2022-11-20T13:39:38.684Z,6
2022-11-20T13:44:46.634Z,6
2022-11-20T13:49:54.609Z,6
2022-11-20T13:55:02.596Z,6
2022-11-20T14:00:10.597Z,6
2022-11-20T14:05:18.553Z,6
2022-11-20T14:10:31.301Z,6
2022-11-20T14:15:34.467Z,6
2022-11-20T14:20:42.438Z,6
2022-11-20T14:25:50.416Z,6
2022-11-20T14:30:58.408Z,6
2022-11-20T14:36:06.398Z,6
2022-11-20T14:41:14.327Z,6
2022-11-20T14:46:22.316Z,6
2022-11-20T14:51:30.260Z,6
2022-11-20T14:56:38.238Z,6
2022-11-20T15:01:46.201Z,6
2022-11-20T15:06:54.181Z,6
2022-11-20T15:12:02.155Z,5.9
2022-11-20T15:17:10.105Z,5.9
2022-11-20T15:27:26.070Z,5.9
2022-11-20T15:32:34.035Z,5.9
2022-11-20T15:37:41.981Z,5.9
2022-11-20T15:42:49.944Z,5.9
2022-11-20T15:47:57.929Z,5.9
2022-11-20T15:53:05.912Z,5.9
2022-11-20T15:58:13.855Z,5.9
2022-11-20T16:03:21.816Z,5.9
2022-11-20T16:08:29.790Z,5.9
2022-11-20T16:13:37.755Z,5.9
2022-11-20T16:18:45.723Z,5.9
2022-11-20T16:23:53.715Z,5.9
2022-11-20T16:29:01.702Z,5.9
2022-11-20T16:34:23.146Z,5.9
2022-11-20T16:39:23.112Z,5.9
2022-11-20T16:44:25.849Z,5.9
2022-11-20T16:49:33.546Z,5.9
2022-11-20T16:54:41.528Z,5.9
2022-11-20T16:59:49.492Z,5.9
2022-11-20T17:04:57.471Z,5.9
2022-11-20T17:10:05.439Z,5.9
2022-11-20T17:20:21.387Z,5.8
2022-11-20T17:30:36.050Z,5.8
2022-11-20T17:35:44.020Z,5.8
2022-11-20T17:40:52.022Z,5.8
2022-11-20T17:45:59.964Z,5.8
2022-11-20T17:51:07.948Z,5.8
2022-11-20T17:56:15.919Z,5.8
2022-11-20T18:01:23.976Z,5.8
2022-11-20T18:06:31.865Z,5.8
2022-11-20T18:11:39.818Z,5.8
2022-11-20T18:16:47.802Z,5.8
2022-11-20T18:21:55.805Z,5.8
2022-11-20T18:27:03.740Z,5.8
2022-11-20T18:37:19.713Z,5.8
2022-11-20T18:42:26.454Z,5.8
2022-11-20T18:52:42.372Z,5.8
2022-11-20T18:57:49.145Z,5.8
2022-11-20T19:02:55.870Z,5.8
2022-11-20T19:08:02.614Z,5.8
2022-11-20T19:13:09.347Z,5.8
2022-11-20T19:18:16.091Z,5.8
2022-11-20T19:23:24.070Z,5.8
2022-11-20T19:33:39.975Z,5.8
2022-11-20T19:38:48.008Z,5.8
2022-11-20T19:43:53.467Z,5.8
2022-11-20T19:49:00.211Z,5.8
2022-11-20T19:59:14.943Z,5.8
2022-11-20T20:04:21.693Z,5.8
2022-11-20T20:09:28.415Z,5.8
2022-11-20T20:14:35.157Z,5.8
2022-11-20T20:24:49.859Z,5.8
2022-11-20T20:29:56.604Z,5.8
2022-11-20T20:35:03.353Z,5.8
2022-11-20T20:40:14.889Z,5.8
2022-11-20T20:45:16.848Z,5.8
2022-11-20T20:50:23.592Z,5.9
2022-11-20T20:55:30.310Z,5.9
2022-11-20T21:00:37.070Z,5.9
2022-11-20T21:05:43.797Z,5.9
2022-11-20T21:10:50.542Z,5.9
2022-11-20T21:15:57.434Z,5.9
2022-11-20T21:21:04.045Z,6
2022-11-20T21:26:12.007Z,6
2022-11-20T21:31:19.986Z,6
2022-11-20T21:36:27.971Z,6
2022-11-20T21:41:35.935Z,6
2022-11-20T21:46:42.665Z,6
2022-11-20T21:51:49.413Z,6
2022-11-20T21:56:56.162Z,6
2022-11-20T22:02:02.963Z,6
2022-11-20T22:07:09.673Z,6
2022-11-20T22:12:16.380Z,6
2022-11-20T22:17:23.143Z,6
2022-11-20T22:22:29.877Z,6
2022-11-20T22:27:36.605Z,6
2022-11-20T22:32:44.605Z,6
2022-11-20T22:37:51.326Z,6
2022-11-20T22:42:58.063Z,6
2022-11-20T22:48:04.811Z,6
2022-11-20T22:58:19.550Z,6
2022-11-20T23:03:26.291Z,6
2022-11-20T23:08:33.012Z,6
2022-11-20T23:13:39.774Z,6
2022-11-20T23:18:46.492Z,6
2022-11-20T23:23:53.234Z,6
2022-11-20T23:29:00.117Z,6
2022-11-20T23:39:15.930Z,6
2022-11-20T23:44:23.864Z,6
2022-11-20T23:49:31.861Z,6
2022-11-20T23:54:39.835Z,6
2022-11-20T23:59:47.810Z,6
